Time;durP1;ratioP1;P1;durP2;ratioP2;P2;SDS_P1;SDS_P2;PMS_P1;PMS_P2;Temp;Humidity;BMP_temperature;BMP_pressure;BME280_temperature;BME280_humidity;BME280_pressure;Samples;Min_cycle;Max_cycle;Signal;HPM_P1;HPM_P2
2021/05/17 00:02:23;;;;;;;3.30;2.60;;;;;;;40.26;30.67;161815.67;1638229;86;21848;-84
2021/05/17 00:04:55;;;;;;;4.30;3.08;;;;;;;40.39;30.62;161849.25;1629620;87;21349;-84
2021/05/17 00:07:29;;;;;;;5.40;2.90;;;;;;;40.35;30.59;161839.86;1629489;87;22076;-85
2021/05/17 00:10:01;;;;;;;3.22;2.42;;;;;;;40.22;30.61;161803.61;1659875;86;21216;-84
2021/05/17 00:12:35;;;;;;;3.95;2.90;;;;;;;40.12;30.58;161778.09;1640419;86;21283;-85
2021/05/17 00:15:12;;;;;;;3.52;2.42;;;;;;;40.10;30.54;161772.72;1629519;88;21429;-85
2021/05/17 00:17:46;;;;;;;7.50;3.45;;;;;;;40.17;30.49;161790.17;1632864;87;21212;-86
2021/05/17 00:20:21;;;;;;;4.55;2.30;;;;;;;40.21;30.31;161800.92;1557936;91;21312;-85
2021/05/17 00:22:54;;;;;;;8.88;3.52;;;;;;;40.12;30.30;161776.73;1587104;89;21949;-85
2021/05/17 00:25:27;;;;;;;5.53;3.12;;;;;;;40.05;30.27;161759.30;1607436;89;21793;-85
2021/05/17 00:28:00;;;;;;;3.60;2.62;;;;;;;39.98;30.23;161740.53;1609237;87;21833;-86
2021/05/17 00:30:33;;;;;;;3.22;2.70;;;;;;;39.98;30.27;161740.53;1607381;88;21270;-86
2021/05/17 00:33:06;;;;;;;5.90;2.90;;;;;;;39.95;30.25;161731.16;1607353;88;21783;-86
2021/05/17 00:35:38;;;;;;;4.28;2.80;;;;;;;39.98;30.20;161740.53;1609426;87;21251;-86
2021/05/17 00:38:11;;;;;;;3.52;2.77;;;;;;;39.98;30.25;161740.53;1597364;88;21201;-86
2021/05/17 00:40:46;;;;;;;2.92;2.52;;;;;;;40.02;30.30;161749.91;1649147;87;21272;-88
2021/05/17 00:43:18;;;;;;;5.40;2.80;;;;;;;40.00;30.20;161744.53;1631244;86;21396;-86
2021/05/17 00:45:51;;;;;;;4.50;3.10;;;;;;;39.95;30.23;161731.16;1633739;86;21269;-85
2021/05/17 00:48:24;;;;;;;4.37;2.85;;;;;;;39.93;30.37;161727.09;1630563;86;21226;-85
2021/05/17 00:50:57;;;;;;;6.70;3.62;;;;;;;39.91;30.42;161719.03;1631522;87;21304;-85
2021/05/17 00:53:30;;;;;;;4.35;2.80;;;;;;;39.91;30.53;161719.03;1592340;90;21828;-85
2021/05/17 00:56:04;;;;;;;8.65;3.02;;;;;;;39.79;30.64;161688.16;1608423;88;21159;-85
2021/05/17 00:58:39;;;;;;;5.65;3.37;;;;;;;39.90;30.83;161716.34;1611197;89;21254;-85
2021/05/17 01:01:11;;;;;;;5.85;3.30;;;;;;;39.93;30.89;161727.09;1605329;88;21218;-86
2021/05/17 01:03:44;;;;;;;6.97;3.17;;;;;;;39.91;30.92;161720.36;1605510;89;21904;-86
2021/05/17 01:06:21;;;;;;;8.23;3.50;;;;;;;39.90;30.84;161717.67;1592532;88;21334;-86
2021/05/17 01:09:04;;;;;;;5.92;3.10;;;;;;;39.76;30.88;161678.78;1604844;88;21244;-85
2021/05/17 01:11:38;;;;;;;6.67;3.20;;;;;;;39.76;30.88;161678.78;1604745;88;21408;-85
2021/05/17 01:14:12;;;;;;;4.80;3.10;;;;;;;39.78;30.99;161684.16;1610151;88;21223;-85
2021/05/17 01:16:47;;;;;;;4.25;3.20;;;;;;;39.75;31.02;161676.09;1622942;87;21160;-85
2021/05/17 01:20:15;;;;;;;4.67;3.20;;;;;;;39.72;31.03;161669.41;1619989;87;21223;-85
2021/05/17 01:25:32;;;;;;;5.67;3.35;;;;;;;39.67;31.48;161654.66;1606268;89;21424;-86
2021/05/17 01:28:06;;;;;;;5.72;3.10;;;;;;;39.63;31.72;161645.28;1616264;88;21234;-85
2021/05/17 01:30:38;;;;;;;5.40;3.52;;;;;;;39.57;31.73;161627.84;1619230;88;21739;-85
2021/05/17 01:33:10;;;;;;;6.03;3.50;;;;;;;39.51;31.73;161613.09;1606823;88;21911;-85
2021/05/17 01:35:43;;;;;;;6.05;3.25;;;;;;;39.48;31.93;161603.63;1609920;87;21405;-85
2021/05/17 01:38:17;;;;;;;5.05;3.05;;;;;;;39.47;32.20;161602.30;1596804;89;21441;-84
2021/05/17 01:40:50;;;;;;;9.78;4.33;;;;;;;39.49;32.26;161607.67;1602832;89;21852;-84
2021/05/17 01:43:23;;;;;;;7.15;3.50;;;;;;;39.51;32.23;161611.72;1606291;88;21259;-85
2021/05/17 01:45:55;;;;;;;4.33;3.08;;;;;;;39.51;32.40;161611.72;1623300;88;21250;-84
2021/05/17 01:48:29;;;;;;;6.20;3.10;;;;;;;39.53;32.43;161617.09;1596328;88;21368;-85
2021/05/17 01:51:02;;;;;;;4.20;3.08;;;;;;;39.57;32.96;161627.84;1595907;90;21471;-85
2021/05/17 01:53:37;;;;;;;5.55;3.40;;;;;;;39.53;33.22;161618.41;1594259;90;21298;-85
2021/05/17 01:56:09;;;;;;;6.25;3.47;;;;;;;39.52;33.55;161615.78;1618911;87;21206;-85
2021/05/17 01:58:42;;;;;;;7.70;3.65;;;;;;;39.51;33.65;161613.09;1637896;87;21333;-85
2021/05/17 02:01:18;;;;;;;6.08;3.40;;;;;;;39.44;33.83;161594.23;1629580;88;21291;-85
2021/05/17 02:03:51;;;;;;;3.83;3.02;;;;;;;39.43;33.82;161590.23;1629561;88;21833;-85
2021/05/17 02:06:24;;;;;;;5.33;3.00;;;;;;;39.37;33.70;161575.48;1648383;85;21232;-86
2021/05/17 02:08:56;;;;;;;6.25;2.90;;;;;;;39.35;33.68;161570.13;1648939;87;21233;-85
2021/05/17 02:11:29;;;;;;;5.17;3.10;;;;;;;39.32;33.87;161560.75;1649022;87;21201;-86
2021/05/17 02:14:03;;;;;;;4.58;3.20;;;;;;;39.31;34.08;161558.06;1635702;86;21286;-84
2021/05/17 02:16:36;;;;;;;6.15;3.17;;;;;;;39.30;34.35;161555.37;1657071;86;21229;-84
2021/05/17 02:19:10;;;;;;;5.75;3.25;;;;;;;39.24;34.66;161540.63;1639031;86;21202;-83
2021/05/17 02:21:43;;;;;;;5.87;3.08;;;;;;;39.24;34.77;161540.63;1646719;87;21216;-84
2021/05/17 02:24:16;;;;;;;7.30;3.65;;;;;;;39.24;34.79;161540.63;1619870;88;21833;-84
2021/05/17 02:26:49;;;;;;;5.92;3.08;;;;;;;39.27;34.90;161548.69;1651461;86;21903;-84
2021/05/17 02:29:22;;;;;;;12.95;3.72;;;;;;;39.31;35.00;161559.38;1629446;88;21207;-84
2021/05/17 02:31:55;;;;;;;6.58;3.33;;;;;;;39.31;35.12;161558.06;1629343;86;21306;-84
2021/05/17 02:34:28;;;;;;;8.58;3.62;;;;;;;39.30;35.26;161556.69;1633818;85;21327;-84
2021/05/17 02:37:02;;;;;;;5.97;2.90;;;;;;;39.37;35.35;161574.13;1654838;86;21233;-84
2021/05/17 02:39:36;;;;;;;5.20;3.35;;;;;;;39.40;35.46;161582.17;1642518;87;21765;-84
2021/05/17 02:42:17;;;;;;;4.75;3.47;;;;;;;39.42;35.60;161587.55;1629453;88;21396;-84
2021/05/17 02:44:50;;;;;;;6.22;4.58;;;;;;;39.47;35.55;161600.98;1652088;86;21189;-84
2021/05/17 02:47:25;;;;;;;5.28;3.70;;;;;;;39.43;35.57;161591.55;1660597;85;21237;-83
2021/05/17 02:49:57;;;;;;;7.08;3.62;;;;;;;39.40;35.69;161582.17;1651489;85;21229;-84
2021/05/17 02:52:33;;;;;;;6.10;3.87;;;;;;;39.34;35.75;161566.13;1656094;86;21282;-84
2021/05/17 02:55:16;;;;;;;6.03;3.37;;;;;;;39.33;35.92;161563.44;1615539;85;21185;-83
2021/05/17 02:57:50;;;;;;;5.58;4.05;;;;;;;39.31;36.11;161558.06;1639032;86;21198;-84
2021/05/17 03:00:24;;;;;;;4.70;3.60;;;;;;;39.27;36.30;161548.69;1629770;88;21205;-83
2021/05/17 03:03:15;;;;;;;5.78;3.42;;;;;;;39.18;36.43;161524.50;1631856;86;21294;-84
2021/05/17 03:05:50;;;;;;;5.53;3.45;;;;;;;39.26;36.43;161546.00;1627101;88;21753;-83
2021/05/17 03:08:25;;;;;;;4.78;3.17;;;;;;;39.20;36.57;161529.88;1629793;88;21210;-84
2021/05/17 03:10:58;;;;;;;5.35;3.35;;;;;;;39.24;36.63;161539.25;1655451;86;21248;-84
2021/05/17 03:13:31;;;;;;;9.48;3.98;;;;;;;39.17;36.79;161521.88;1657021;85;21193;-84
2021/05/17 03:16:04;;;;;;;4.85;3.50;;;;;;;39.17;36.89;161521.88;1653243;86;21194;-83
2021/05/17 03:18:38;;;;;;;8.93;3.55;;;;;;;39.15;36.94;161516.50;1641201;87;21237;-84
2021/05/17 03:21:10;;;;;;;6.08;3.90;;;;;;;39.13;37.06;161509.77;1631395;87;21847;-84
2021/05/17 03:23:43;;;;;;;5.87;3.35;;;;;;;39.12;37.16;161508.44;1620094;88;21832;-84
2021/05/17 03:26:18;;;;;;;7.22;3.67;;;;;;;39.13;37.17;161509.77;1640138;86;21843;-84
2021/05/17 03:28:51;;;;;;;4.65;3.30;;;;;;;39.08;37.15;161496.39;1614396;88;21214;-84
2021/05/17 03:31:23;;;;;;;5.30;3.37;;;;;;;39.06;37.11;161490.97;1631155;88;21254;-85
2021/05/17 03:34:00;;;;;;;4.58;3.60;;;;;;;39.09;37.01;161499.08;1644365;85;21203;-84
2021/05/17 03:36:33;;;;;;;5.08;3.33;;;;;;;39.12;36.97;161508.44;1603674;89;21773;-85
2021/05/17 03:39:06;;;;;;;5.42;3.30;;;;;;;39.14;36.85;161512.44;1632340;88;21403;-85
2021/05/17 03:41:38;;;;;;;10.50;3.87;;;;;;;39.10;36.85;161503.08;1603734;89;21265;-85
2021/05/17 03:44:11;;;;;;;6.75;3.70;;;;;;;39.14;36.88;161513.81;1617602;87;21179;-84
2021/05/17 03:46:43;;;;;;;6.67;3.58;;;;;;;39.20;36.80;161528.56;1609968;89;21217;-84
2021/05/17 03:49:16;;;;;;;11.53;3.80;;;;;;;39.17;36.80;161520.50;1628169;86;21290;-84
2021/05/17 03:51:49;;;;;;;8.88;3.55;;;;;;;39.16;36.77;161519.19;1593795;89;21341;-85
2021/05/17 03:54:21;;;;;;;9.43;3.52;;;;;;;39.20;36.76;161528.56;1590454;89;21206;-84
2021/05/17 03:56:54;;;;;;;7.15;3.65;;;;;;;39.21;36.84;161531.25;1634712;86;21246;-83
2021/05/17 03:59:28;;;;;;;7.30;3.85;;;;;;;39.21;36.90;161531.25;1635077;86;21412;-86
2021/05/17 04:02:01;;;;;;;8.00;3.62;;;;;;;39.20;36.90;161528.56;1633469;86;21773;-84
2021/05/17 04:04:43;;;;;;;10.00;4.00;;;;;;;39.18;36.89;161524.50;1659522;86;21753;-82
2021/05/17 04:15:27;;;;;;;6.95;3.77;;;;;;;39.11;37.26;161504.44;1629911;86;21972;-83
2021/05/17 04:18:00;;;;;;;5.67;3.58;;;;;;;39.05;37.45;161489.64;1634435;85;21963;-82
2021/05/17 04:20:32;;;;;;;6.80;3.77;;;;;;;39.04;37.49;161486.97;1633850;86;21436;-83
2021/05/17 04:23:04;;;;;;;5.80;3.77;;;;;;;38.96;37.56;161465.47;1629386;87;22088;-82
2021/05/17 04:25:37;;;;;;;9.00;3.87;;;;;;;39.03;37.62;161482.91;1622637;87;21345;-83
2021/05/17 04:28:09;;;;;;;5.53;3.67;;;;;;;39.09;37.63;161500.39;1643648;87;21280;-83
2021/05/17 04:30:42;;;;;;;4.83;3.58;;;;;;;39.16;37.61;161517.81;1650488;86;21740;-83
2021/05/17 04:33:14;;;;;;;6.40;3.62;;;;;;;39.20;37.57;161529.88;1649110;85;21209;-83
2021/05/17 04:35:46;;;;;;;7.33;3.17;;;;;;;39.21;37.70;161531.25;1648051;87;21764;-84
2021/05/17 04:38:19;;;;;;;4.60;3.55;;;;;;;39.24;37.63;161539.25;1649074;87;21240;-84
2021/05/17 04:40:51;;;;;;;4.75;3.55;;;;;;;39.25;37.69;161543.31;1644361;86;21229;-84
2021/05/17 04:43:24;;;;;;;6.45;3.33;;;;;;;39.30;37.76;161555.37;1645146;86;21233;-82
2021/05/17 04:45:56;;;;;;;6.03;3.55;;;;;;;39.30;37.78;161555.37;1643501;86;21354;-85
2021/05/17 04:48:28;;;;;;;4.35;3.20;;;;;;;39.25;37.85;161541.94;1647209;86;21227;-82
2021/05/17 04:51:01;;;;;;;4.92;3.42;;;;;;;39.21;37.87;161531.25;1660305;86;21174;-82
2021/05/17 04:53:33;;;;;;;4.53;3.30;;;;;;;39.20;37.92;161528.56;1611755;86;21411;-83
2021/05/17 04:56:07;;;;;;;4.12;2.95;;;;;;;39.23;37.91;161536.62;1644424;86;21235;-82
2021/05/17 04:58:39;;;;;;;7.53;3.52;;;;;;;39.26;37.82;161544.63;1647922;86;21203;-84
2021/05/17 05:01:11;;;;;;;4.42;2.95;;;;;;;39.26;37.88;161544.63;1642645;86;21442;-85
2021/05/17 05:03:44;;;;;;;4.78;2.87;;;;;;;39.25;37.96;161543.31;1641042;86;21359;-84
2021/05/17 05:06:16;;;;;;;4.53;3.15;;;;;;;39.25;38.06;161543.31;1642418;86;21397;-84
2021/05/17 05:08:49;;;;;;;6.90;3.37;;;;;;;39.28;38.22;161550.00;1643877;86;21193;-82
2021/05/17 05:11:25;;;;;;;7.58;3.50;;;;;;;39.30;38.26;161556.69;1644113;86;21402;-80
2021/05/17 05:14:07;;;;;;;10.13;4.28;;;;;;;39.28;38.25;161550.00;1643594;86;21335;-83
2021/05/17 05:16:49;;;;;;;16.95;4.90;;;;;;;39.29;38.25;161552.69;1638280;86;21457;-87
2021/05/17 05:19:29;;;;;;;17.32;5.40;;;;;;;39.26;38.18;161546.00;1643172;86;21461;-85
2021/05/17 05:22:02;;;;;;;20.50;6.53;;;;;;;39.28;38.10;161550.00;1644358;86;21231;-84
2021/05/17 05:24:36;;;;;;;20.90;6.83;;;;;;;39.26;38.15;161546.00;1607529;87;21390;-86
2021/05/17 05:27:31;;;;;;;18.35;6.17;;;;;;;39.29;38.22;161554.05;1643840;86;21394;-85
2021/05/17 05:30:12;;;;;;;24.63;7.05;;;;;;;39.29;38.26;161554.05;1643250;86;21449;-83
2021/05/17 05:32:41;;;;;;;27.58;7.08;;;;;;;39.19;38.42;161527.19;1645481;86;21358;-83
2021/05/17 05:35:11;;;;;;;27.17;6.75;;;;;;;39.27;38.51;161547.31;1590502;88;21215;-83
2021/05/17 05:37:43;;;;;;;27.42;7.50;;;;;;;39.32;38.65;161562.06;1597946;89;21313;-83
2021/05/17 05:40:16;;;;;;;24.77;6.33;;;;;;;39.32;38.83;161560.75;1585260;89;21266;-84
2021/05/17 05:42:48;;;;;;;21.50;6.58;;;;;;;39.33;38.89;161563.44;1589618;88;21364;-80
2021/05/17 05:45:22;;;;;;;11.43;4.95;;;;;;;40.20;38.13;161799.55;1613749;88;21801;-82
2021/05/17 05:47:55;;;;;;;9.70;4.62;;;;;;;39.57;38.77;161629.16;1606506;88;21437;-83
2021/05/17 05:50:28;;;;;;;7.78;4.50;;;;;;;39.42;39.18;161587.55;1614466;88;21222;-81
2021/05/17 05:53:01;;;;;;;4.78;3.85;;;;;;;39.38;39.41;161576.81;1584895;88;21280;-89
2021/05/17 05:55:34;;;;;;;7.47;4.03;;;;;;;39.43;39.33;161590.23;1585627;88;21356;-83
2021/05/17 05:58:07;;;;;;;4.85;3.42;;;;;;;39.49;39.34;161606.31;1592149;88;21221;-83
2021/05/17 06:00:40;;;;;;;4.20;3.45;;;;;;;39.43;39.29;161591.55;1599014;87;22052;-85
2021/05/17 06:03:14;;;;;;;5.22;3.30;;;;;;;39.43;39.18;161590.23;1590299;88;21221;-85
2021/05/17 06:05:46;;;;;;;4.92;3.20;;;;;;;39.43;38.96;161591.55;1638321;86;21284;-88
2021/05/17 06:08:19;;;;;;;3.90;3.02;;;;;;;39.48;38.71;161604.98;1640162;87;21234;-87
2021/05/17 06:10:52;;;;;;;3.50;2.77;;;;;;;39.43;38.63;161590.23;1656797;85;21285;-86
2021/05/17 06:13:25;;;;;;;3.83;2.62;;;;;;;39.50;38.51;161608.98;1656442;86;21201;-86
2021/05/17 06:15:58;;;;;;;4.20;2.72;;;;;;;39.52;38.45;161615.78;1655625;86;21257;-87
2021/05/17 06:18:33;;;;;;;3.90;3.30;;;;;;;39.55;38.58;161622.47;1608541;87;21419;-86
2021/05/17 06:21:06;;;;;;;11.10;3.75;;;;;;;39.57;38.59;161629.16;1630640;88;21399;-87
2021/05/17 06:23:39;;;;;;;5.85;3.37;;;;;;;39.61;38.64;161638.53;1650105;85;21290;-87
2021/05/17 06:26:12;;;;;;;6.22;3.45;;;;;;;39.60;38.76;161637.22;1657284;85;21217;-87
2021/05/17 06:28:44;;;;;;;6.28;4.00;;;;;;;39.58;38.83;161631.84;1648839;86;21304;-87
2021/05/17 06:31:20;;;;;;;8.40;3.95;;;;;;;39.51;39.00;161613.09;1648280;86;21201;-87
2021/05/17 06:33:54;;;;;;;6.05;3.92;;;;;;;39.25;39.50;161543.31;1646885;86;21807;-85
2021/05/17 06:36:29;;;;;;;6.65;4.08;;;;;;;39.43;39.31;161590.23;1624511;86;21388;-84
2021/05/17 06:39:18;;;;;;;4.33;3.92;;;;;;;38.99;39.87;161472.22;1640202;86;21217;-83
2021/05/17 06:42:18;;;;;;;5.45;3.98;;;;;;;38.83;40.37;161429.31;1628660;86;21325;-83
2021/05/17 06:45:12;;;;;;;;;;;;;;;39.23;40.05;161537.94;1632465;86;21903;-84
2021/05/17 06:48:06;;;;;;;5.03;3.98;;;;;;;39.42;39.82;161587.55;1628454;86;20223;-85
2021/05/17 06:50:49;;;;;;;5.22;4.12;;;;;;;39.46;39.89;161598.30;1630965;86;21446;-84
2021/05/17 06:53:24;;;;;;;6.80;3.95;;;;;;;39.65;39.77;161650.59;1631345;86;21440;-86
2021/05/17 06:56:03;;;;;;;7.65;4.45;;;;;;;39.82;39.68;161696.22;1593569;88;21190;-81
2021/05/17 06:58:51;;;;;;;7.00;5.10;;;;;;;39.88;39.73;161712.30;1633471;86;21466;-84
2021/05/17 07:01:13;;;;;;;7.08;4.25;;;;;;;39.43;40.44;161590.23;1631728;86;21410;-84
2021/05/17 07:03:47;;;;;;;6.17;4.28;;;;;;;39.40;40.72;161582.17;1631775;86;21280;-85
2021/05/17 07:06:32;;;;;;;6.42;3.98;;;;;;;39.50;40.69;161608.98;1593057;88;21506;-86
2021/05/17 07:12:54;;;;;;;7.25;4.22;;;;;;;39.55;40.79;161622.47;1610308;87;21436;-85
2021/05/17 07:15:47;;;;;;;7.78;3.67;;;;;;;39.71;40.45;161665.34;1642979;86;21264;-85
2021/05/17 07:18:20;;;;;;;5.40;3.47;;;;;;;39.52;40.47;161614.41;1595223;88;21819;-87
2021/05/17 07:23:38;;;;;;;6.62;3.50;;;;;;;39.57;40.60;161629.16;1611025;87;21816;-85
2021/05/17 07:26:15;;;;;;;6.15;3.25;;;;;;;39.62;40.65;161642.59;1600223;88;21364;-84
2021/05/17 07:28:50;;;;;;;5.40;3.33;;;;;;;39.70;40.62;161662.72;1598437;88;21322;-85
2021/05/17 07:31:22;;;;;;;8.53;3.40;;;;;;;39.74;40.68;161674.78;1597729;88;21480;-84
2021/05/17 07:33:55;;;;;;;5.85;2.70;;;;;;;39.83;40.56;161697.53;1597693;88;21263;-85
2021/05/17 07:36:27;;;;;;;3.05;2.10;;;;;;;39.89;40.30;161713.66;1596744;88;21400;-85
2021/05/17 07:38:59;;;;;;;5.03;2.50;;;;;;;40.00;39.92;161744.53;1596742;88;21372;-83
2021/05/17 07:41:32;;;;;;;4.67;2.37;;;;;;;40.01;39.43;161748.59;1597149;88;22074;-83
2021/05/17 07:44:05;;;;;;;2.58;2.10;;;;;;;40.01;39.24;161748.59;1597340;88;21258;-84
2021/05/17 07:46:38;;;;;;;4.22;2.05;;;;;;;40.09;39.20;161768.72;1597340;88;21215;-84
2021/05/17 07:49:13;;;;;;;6.08;2.10;;;;;;;40.10;39.15;161772.72;1597391;88;21972;-85
2021/05/17 07:51:45;;;;;;;4.72;2.60;;;;;;;40.13;39.04;161779.42;1597185;88;21424;-85
2021/05/17 07:54:21;;;;;;;2.35;1.80;;;;;;;40.15;38.86;161786.16;1596962;88;21365;-84
2021/05/17 07:56:54;;;;;;;3.65;2.00;;;;;;;40.20;38.83;161799.55;1596622;90;21757;-84
2021/05/17 07:59:30;;;;;;;3.60;2.33;;;;;;;40.24;38.80;161808.94;1583764;88;21287;-84
2021/05/17 08:02:03;;;;;;;2.17;1.98;;;;;;;40.32;39.01;161831.75;1581324;90;21246;-84
2021/05/17 08:04:35;;;;;;;4.65;1.95;;;;;;;40.43;39.05;161861.31;1621222;87;21729;-84
2021/05/17 08:07:09;;;;;;;7.37;2.08;;;;;;;40.43;38.99;161860.00;1621463;87;21313;-84
2021/05/17 08:09:43;;;;;;;2.98;2.15;;;;;;;40.47;38.75;161872.06;1621205;87;21251;-84
2021/05/17 08:12:15;;;;;;;6.05;2.30;;;;;;;40.53;38.68;161888.14;1621393;87;21797;-84
2021/05/17 08:14:47;;;;;;;5.55;2.37;;;;;;;40.65;38.70;161920.34;1620746;87;21251;-84
2021/05/17 08:17:19;;;;;;;4.42;2.27;;;;;;;40.69;38.82;161931.09;1620705;87;21274;-84
2021/05/17 08:19:53;;;;;;;4.03;1.98;;;;;;;40.78;39.04;161955.30;1621010;87;21239;-84
2021/05/17 08:22:26;;;;;;;2.77;1.95;;;;;;;40.86;39.25;161976.75;1620960;87;21258;-85
2021/05/17 08:24:58;;;;;;;3.17;1.87;;;;;;;40.98;38.89;162008.97;1620638;87;21273;-84
2021/05/17 08:27:31;;;;;;;3.10;1.80;;;;;;;41.07;38.85;162034.48;1620758;87;21309;-84
2021/05/17 08:30:04;;;;;;;1.90;1.67;;;;;;;41.18;38.71;162064.06;1598136;87;21215;-84
2021/05/17 08:32:37;;;;;;;3.65;2.33;;;;;;;41.33;38.44;162104.34;1620428;87;21203;-85
2021/05/17 08:35:10;;;;;;;3.52;2.30;;;;;;;41.48;38.11;162143.27;1620563;87;21265;-87
2021/05/17 08:37:42;;;;;;;6.33;2.40;;;;;;;41.38;38.25;162116.42;1620441;87;21234;-83
2021/05/17 08:40:16;;;;;;;4.42;2.22;;;;;;;41.43;38.38;162129.88;1621082;87;21291;-84
2021/05/17 08:42:48;;;;;;;4.15;2.33;;;;;;;41.51;38.03;162152.66;1621877;87;21246;-84
2021/05/17 08:45:21;;;;;;;3.22;2.40;;;;;;;41.56;37.88;162164.78;1599371;88;21211;-85
2021/05/17 08:47:54;;;;;;;4.65;2.20;;;;;;;41.57;37.71;162168.84;1584205;87;21262;-83
2021/05/17 08:50:27;;;;;;;2.27;2.00;;;;;;;41.58;37.50;162170.17;1620857;87;21230;-84
2021/05/17 08:52:59;;;;;;;2.62;1.92;;;;;;;41.62;37.50;162180.92;1619806;87;21214;-84
2021/05/17 08:55:32;;;;;;;3.37;1.90;;;;;;;41.66;37.50;162193.00;1620830;87;21259;-84
2021/05/17 08:58:05;;;;;;;2.58;1.55;;;;;;;41.72;37.21;162209.14;1619750;87;21305;-84
2021/05/17 09:00:38;;;;;;;4.85;2.10;;;;;;;41.76;36.94;162218.53;1641454;86;21945;-85
2021/05/17 09:03:10;;;;;;;5.05;1.95;;;;;;;41.80;36.92;162230.61;1644395;86;21426;-86
2021/05/17 09:05:48;;;;;;;3.20;2.15;;;;;;;41.88;36.86;162252.08;1645224;86;21973;-84
2021/05/17 09:08:22;;;;;;;4.20;1.90;;;;;;;41.78;36.62;162223.91;1644381;86;21263;-84
2021/05/17 09:10:55;;;;;;;1.90;1.60;;;;;;;41.76;36.60;162219.84;1604096;87;21268;-84
2021/05/17 09:13:27;;;;;;;2.92;1.70;;;;;;;41.75;36.39;162217.16;1592813;88;21358;-83
2021/05/17 09:16:00;;;;;;;3.72;1.90;;;;;;;41.69;36.46;162201.08;1605462;88;21376;-82
2021/05/17 09:18:32;;;;;;;4.35;2.00;;;;;;;41.75;36.46;162217.16;1609914;87;21377;-83
2021/05/17 09:21:06;;;;;;;2.85;2.00;;;;;;;41.49;36.60;162145.97;1597486;88;21246;-83
2021/05/17 09:23:38;;;;;;;3.40;2.17;;;;;;;41.62;36.50;162180.92;1596977;88;21431;-84
2021/05/17 09:26:26;;;;;;;2.67;2.20;;;;;;;41.62;36.36;162180.92;1595288;88;21964;-84
2021/05/17 09:28:54;;;;;;;7.72;2.52;;;;;;;41.62;36.17;162182.25;1595928;88;22082;-85
2021/05/17 09:31:28;;;;;;;7.37;2.50;;;;;;;41.61;35.99;162178.23;1598019;88;21388;-88
2021/05/17 09:34:02;;;;;;;4.90;2.52;;;;;;;41.56;36.15;162166.16;1597283;88;21372;-85
2021/05/17 09:36:44;;;;;;;8.40;3.52;;;;;;;41.48;36.30;162143.27;1596202;88;21436;-83
2021/05/17 09:39:18;;;;;;;5.83;2.30;;;;;;;41.31;36.50;162097.66;1596523;88;21424;-83
2021/05/17 09:41:56;;;;;;;5.20;2.67;;;;;;;41.32;36.66;162100.34;1596696;88;21431;-83
2021/05/17 09:44:30;;;;;;;9.55;2.90;;;;;;;41.31;36.90;162097.66;1597214;88;21384;-84
2021/05/17 09:47:12;;;;;;;5.75;3.10;;;;;;;41.30;37.18;162096.28;1597038;88;21533;-83
2021/05/17 09:49:55;;;;;;;7.62;4.00;;;;;;;41.23;37.59;162076.14;1596368;88;21349;-82
2021/05/17 09:52:33;;;;;;;9.13;3.30;;;;;;;41.19;38.10;162066.75;1596710;88;21864;-82
2021/05/17 09:55:08;;;;;;;11.43;3.92;;;;;;;41.10;38.62;162042.55;1592606;89;21246;-82
2021/05/17 09:57:48;;;;;;;5.83;3.90;;;;;;;41.06;38.93;162031.80;1605575;88;21419;-84
2021/05/17 10:00:28;;;;;;;7.22;2.58;;;;;;;41.00;39.21;162014.34;1608958;87;21453;-84
2021/05/17 10:03:00;;;;;;;4.72;2.75;;;;;;;40.95;39.34;162002.27;1590255;88;21283;-86
2021/05/17 10:05:35;;;;;;;6.10;2.17;;;;;;;40.90;39.36;161987.50;1607640;88;21275;-84
2021/05/17 10:08:12;;;;;;;4.17;2.20;;;;;;;40.89;39.41;161984.81;1604042;88;21239;-84
2021/05/17 10:10:45;;;;;;;4.90;2.15;;;;;;;40.86;39.54;161975.44;1607148;88;21218;-86
2021/05/17 10:13:18;;;;;;;4.35;2.27;;;;;;;40.84;39.72;161971.42;1607944;88;21218;-84
2021/05/17 10:15:52;;;;;;;7.53;2.10;;;;;;;40.74;39.75;161943.17;1590343;88;21739;-85
2021/05/17 10:18:24;;;;;;;4.55;1.87;;;;;;;40.76;39.74;161948.59;1607206;88;21238;-85
2021/05/17 10:20:59;;;;;;;1.80;1.55;;;;;;;40.71;39.83;161935.11;1607896;88;21297;-85
2021/05/17 10:23:32;;;;;;;3.75;2.05;;;;;;;40.62;40.00;161912.34;1606897;87;21215;-85
2021/05/17 10:26:25;;;;;;;3.87;2.10;;;;;;;40.58;40.17;161900.22;1607282;88;21288;-84
2021/05/17 10:29:06;;;;;;;7.47;2.40;;;;;;;40.61;40.31;161909.66;1609728;87;21266;-85
2021/05/17 10:31:52;;;;;;;3.85;2.02;;;;;;;40.62;40.33;161910.97;1607471;88;21242;-84
2021/05/17 10:34:27;;;;;;;8.55;2.90;;;;;;;40.59;40.41;161902.91;1579575;89;21299;-87
2021/05/17 10:37:02;;;;;;;5.80;2.72;;;;;;;40.58;40.58;161901.59;1606984;88;21251;-82
2021/05/17 10:39:45;;;;;;;6.22;2.35;;;;;;;40.64;40.63;161916.34;1608167;88;21810;-83
2021/05/17 10:42:41;;;;;;;9.20;2.95;;;;;;;40.65;40.71;161920.34;1607223;88;21279;-84
2021/05/17 10:48:35;;;;;;;7.62;3.58;;;;;;;40.74;40.97;161943.17;1606851;88;21246;-82
2021/05/17 10:51:19;;;;;;;7.62;4.92;;;;;;;40.70;41.02;161933.78;1603098;88;21284;-85
2021/05/17 10:53:58;;;;;;;6.37;4.87;;;;;;;41.09;40.24;162039.86;1605591;88;21314;-85
2021/05/17 11:02:39;;;;;;;4.53;3.00;;;;;;;40.99;40.56;162013.03;1608353;88;21321;-83
2021/05/17 11:05:22;;;;;;;3.37;2.80;;;;;;;41.14;40.07;162051.94;1607143;88;21924;-85
2021/05/17 11:08:04;;;;;;;3.20;2.60;;;;;;;41.07;40.16;162034.48;1606964;88;21354;-87
2021/05/17 11:10:58;;;;;;;7.25;3.20;;;;;;;41.09;40.24;162038.48;1606376;88;21250;-85
2021/05/17 11:13:33;;;;;;;3.52;2.70;;;;;;;41.06;40.00;162031.80;1606404;88;21227;-87
2021/05/17 11:16:09;;;;;;;2.72;2.35;;;;;;;41.10;40.08;162041.19;1609198;87;21286;-87
2021/05/17 11:18:51;;;;;;;2.90;2.70;;;;;;;41.10;40.23;162041.19;1606089;87;21307;-88
2021/05/17 11:21:31;;;;;;;2.92;2.22;;;;;;;41.09;40.26;162038.48;1605638;88;21360;-87
2021/05/17 11:24:09;;;;;;;3.23;2.83;;;;;;;41.09;40.20;162038.48;1605324;87;21314;-85
2021/05/17 11:27:01;;;;;;;3.72;2.45;;;;;;;41.08;39.95;162037.17;1607719;88;21203;-87
2021/05/17 11:29:39;;;;;;;3.52;2.10;;;;;;;41.08;39.80;162037.17;1605687;88;21849;-86
2021/05/17 11:32:19;;;;;;;2.45;2.00;;;;;;;41.04;39.66;162025.09;1605958;88;21238;-85
2021/05/17 11:35:09;;;;;;;2.80;2.35;;;;;;;41.07;39.77;162034.48;1606184;88;21247;-85
2021/05/17 11:38:10;;;;;;;3.98;2.00;;;;;;;41.11;39.97;162043.88;1606809;88;21275;-86
2021/05/17 11:40:55;;;;;;;2.02;1.70;;;;;;;41.12;39.51;162047.94;1606660;88;21215;-84
2021/05/17 11:43:23;;;;;;;3.45;1.70;;;;;;;41.20;39.04;162068.13;1608153;87;21738;-83
2021/05/17 11:45:57;;;;;;;1.98;1.60;;;;;;;40.94;39.21;161999.58;1607692;88;21267;-85
2021/05/17 11:48:30;;;;;;;2.77;2.22;;;;;;;41.00;39.25;162015.72;1608429;87;21267;-83
2021/05/17 11:51:02;;;;;;;2.77;1.98;;;;;;;41.05;39.15;162027.78;1606959;88;21251;-84
2021/05/17 11:53:35;;;;;;;1.98;1.77;;;;;;;40.93;38.97;161996.89;1607925;88;21797;-84
2021/05/17 11:56:08;;;;;;;2.27;2.00;;;;;;;40.90;38.79;161986.19;1604367;88;22691;-83
2021/05/17 11:58:43;;;;;;;3.08;2.00;;;;;;;40.87;38.83;161978.13;1607135;87;21314;-84
2021/05/17 12:01:20;;;;;;;3.05;1.80;;;;;;;40.78;38.80;161955.30;1605926;88;21270;-84
2021/05/17 12:03:54;;;;;;;2.10;1.77;;;;;;;40.77;38.91;161952.61;1582158;89;21239;-84
2021/05/17 12:06:35;;;;;;;5.53;2.17;;;;;;;40.72;38.99;161937.80;1606963;88;21254;-84
2021/05/17 12:09:13;;;;;;;2.75;1.75;;;;;;;40.70;39.09;161933.78;1591975;86;21770;-84
2021/05/17 12:11:50;;;;;;;2.90;2.20;;;;;;;40.76;39.19;161949.92;1607535;88;21767;-84
2021/05/17 12:14:23;;;;;;;4.08;1.92;;;;;;;40.77;39.53;161951.28;1607427;88;21285;-84
2021/05/17 12:17:10;;;;;;;2.27;1.70;;;;;;;40.86;39.36;161976.75;1585447;89;21207;-84
2021/05/17 12:19:55;;;;;;;3.20;1.75;;;;;;;40.82;39.64;161964.69;1606218;88;21246;-84
2021/05/17 12:22:37;;;;;;;3.37;2.10;;;;;;;40.85;39.88;161972.75;1607525;88;21327;-84
2021/05/17 12:25:23;;;;;;;2.52;1.87;;;;;;;40.92;39.82;161992.89;1607400;88;21250;-85
2021/05/17 12:27:55;;;;;;;3.15;2.20;;;;;;;40.96;39.71;162003.64;1607001;88;21218;-83
2021/05/17 12:30:32;;;;;;;2.55;1.90;;;;;;;41.00;39.59;162015.72;1607275;88;21259;-84